Time,TemperatureF,DewpointF,PressureIn,WindDirection,WindDirectionDegrees,WindSpeedMPH,WindSpeedGustMPH,Humidity,HourlyPrecipIn,Conditions,Clouds,dailyrainin,SoftwareType,DateUTC
2013-04-29 00:11:00,68.2,63.0,30.08,SSE,161,2.0,7.0,82,0.00,,,0.00,weatherlink.com 1.10,2013-04-29 04:11:00,
2013-04-29 00:26:00,68.2,62.0,30.08,South,179,2.0,6.0,81,0.00,,,0.00,weatherlink.com 1.10,2013-04-29 04:26:00,
2013-04-29 00:41:00,68.3,62.0,30.08,ESE,115,2.0,6.0,80,0.00,,,0.00,weatherlink.com 1.10,2013-04-29 04:41:00,
2013-04-29 00:56:00,68.4,62.0,30.07,SW,216,4.0,6.0,79,0.00,,,0.00,weatherlink.com 1.10,2013-04-29 04:56:00,
2013-04-29 01:11:00,68.4,62.0,30.07,SSE,165,1.0,7.0,79,0.00,,,0.00,weatherlink.com 1.10,2013-04-29 05:11:00,
2013-04-29 01:26:00,68.4,62.0,30.07,SW,219,1.0,6.0,80,0.00,,,0.00,weatherlink.com 1.10,2013-04-29 05:26:00,
2013-04-29 01:41:00,68.1,62.0,30.06,WSW,241,1.0,7.0,81,0.00,,,0.00,weatherlink.com 1.10,2013-04-29 05:41:00,
2013-04-29 01:56:00,67.9,62.0,30.05,South,177,0.0,7.0,82,0.00,,,0.00,weatherlink.com 1.10,2013-04-29 05:56:00,
2013-04-29 02:11:00,68.1,62.0,30.05,SE,132,2.0,8.0,81,0.00,,,0.00,weatherlink.com 1.10,2013-04-29 06:11:00,
2013-04-29 02:26:00,68.0,62.0,30.04,SW,220,0.0,7.0,82,0.00,,,0.00,weatherlink.com 1.10,2013-04-29 06:26:00,
2013-04-29 02:41:00,67.7,62.0,30.03,South,184,2.0,8.0,83,0.00,,,0.00,weatherlink.com 1.10,2013-04-29 06:41:00,
2013-04-29 02:56:00,67.3,63.0,30.03,SSW,208,0.0,8.0,85,0.00,,,0.00,weatherlink.com 1.10,2013-04-29 06:56:00,
2013-04-29 03:11:00,67.5,63.0,30.03,SW,232,0.0,6.0,85,0.00,,,0.00,weatherlink.com 1.10,2013-04-29 07:11:00,
2013-04-29 03:26:00,67.3,63.0,30.03,SSE,153,1.0,3.0,86,0.00,,,0.00,weatherlink.com 1.10,2013-04-29 07:26:00,
2013-04-29 03:41:00,67.2,63.0,30.03,West,281,1.0,8.0,87,0.00,,,0.00,weatherlink.com 1.10,2013-04-29 07:41:00,
2013-04-29 03:56:00,66.6,63.0,30.03,SSE,163,0.0,4.0,89,0.00,,,0.00,weatherlink.com 1.10,2013-04-29 07:56:00,
2013-04-29 04:11:00,66.0,63.0,30.02,SW,217,1.0,4.0,91,0.01,,,0.01,weatherlink.com 1.10,2013-04-29 08:11:00,
2013-04-29 04:26:00,65.8,63.0,30.01,SSE,155,0.0,8.0,91,0.01,,,0.01,weatherlink.com 1.10,2013-04-29 08:26:00,
2013-04-29 04:41:00,65.7,63.0,30.02,West,278,1.0,3.0,92,0.02,,,0.02,weatherlink.com 1.10,2013-04-29 08:41:00,
2013-04-29 04:56:00,65.0,63.0,30.02,WSW,244,2.0,5.0,94,0.27,,,0.27,weatherlink.com 1.10,2013-04-29 08:56:00,
2013-04-29 05:11:00,64.7,63.0,30.02,ESE,111,0.0,4.0,95,0.52,,,0.53,weatherlink.com 1.10,2013-04-29 09:11:00,
2013-04-29 05:26:00,64.6,64.0,30.00,SSE,148,0.0,3.0,96,0.53,,,0.54,weatherlink.com 1.10,2013-04-29 09:26:00,
2013-04-29 05:41:00,64.6,64.0,30.01,West,275,1.0,3.0,96,0.59,,,0.61,weatherlink.com 1.10,2013-04-29 09:41:00,
2013-04-29 05:56:00,64.5,63.0,30.01,SE,125,0.0,3.0,96,0.43,,,0.71,weatherlink.com 1.10,2013-04-29 09:56:00,
2013-04-29 06:11:00,64.4,64.0,30.00,NW,309,0.0,2.0,97,0.19,,,0.72,weatherlink.com 1.10,2013-04-29 10:11:00,
2013-04-29 06:26:00,64.4,64.0,30.00,NW,306,0.0,0.0,97,0.18,,,0.72,weatherlink.com 1.10,2013-04-29 10:26:00,
2013-04-29 06:41:00,64.5,64.0,30.01,NW,306,0.0,0.0,97,0.12,,,0.73,weatherlink.com 1.10,2013-04-29 10:41:00,
2013-04-29 06:56:00,64.5,64.0,30.01,NW,307,0.0,1.0,97,0.04,,,0.75,weatherlink.com 1.10,2013-04-29 10:56:00,
2013-04-29 07:11:00,64.6,64.0,30.02,WNW,298,0.0,3.0,97,0.18,,,0.90,weatherlink.com 1.10,2013-04-29 11:11:00,
2013-04-29 07:27:00,64.8,64.0,30.02,SE,142,0.0,3.0,98,0.27,,,0.99,weatherlink.com 1.10,2013-04-29 11:27:00,
2013-04-29 07:42:00,65.0,65.0,30.03,NW,306,0.0,1.0,98,0.32,,,1.05,weatherlink.com 1.10,2013-04-29 11:42:00,
2013-04-29 07:57:00,65.1,65.0,30.03,NW,306,0.0,3.0,98,0.42,,,1.17,weatherlink.com 1.10,2013-04-29 11:57:00,
2013-04-29 08:12:00,65.1,65.0,30.04,West,277,3.0,8.0,98,0.38,,,1.28,weatherlink.com 1.10,2013-04-29 12:12:00,
2013-04-29 08:31:00,64.8,64.0,30.04,SW,225,1.0,3.0,98,0.37,,,1.37,weatherlink.com 1.10,2013-04-29 12:31:00,
2013-04-29 08:42:00,65.0,65.0,30.04,WNW,303,4.0,9.0,98,0.35,,,1.40,weatherlink.com 1.10,2013-04-29 12:42:00,
2013-04-29 08:57:00,64.5,64.0,30.05,NW,314,2.0,6.0,97,0.24,,,1.41,weatherlink.com 1.10,2013-04-29 12:57:00,
2013-04-29 09:12:00,64.2,63.0,30.05,NNE,13,3.0,8.0,97,0.13,,,1.41,weatherlink.com 1.10,2013-04-29 13:12:00,
2013-04-29 09:27:00,64.0,63.0,30.05,NNE,20,0.0,6.0,97,0.05,,,1.41,weatherlink.com 1.10,2013-04-29 13:27:00,
2013-04-29 09:42:00,64.3,64.0,30.04,North,357,1.0,3.0,97,0.01,,,1.41,weatherlink.com 1.10,2013-04-29 13:42:00,
2013-04-29 09:57:00,64.4,64.0,30.05,North,8,1.0,4.0,97,0.00,,,1.41,weatherlink.com 1.10,2013-04-29 13:57:00,
2013-04-29 10:12:00,64.8,64.0,30.04,ENE,66,5.0,5.0,97,0.00,,,1.41,weatherlink.com 1.10,2013-04-29 14:12:00,
2013-04-29 10:27:00,64.9,64.0,30.04,ENE,68,2.0,3.0,97,0.00,,,1.41,weatherlink.com 1.10,2013-04-29 14:27:00,
2013-04-29 10:42:00,65.1,64.0,30.05,NNE,17,0.0,4.0,97,0.00,,,1.41,weatherlink.com 1.10,2013-04-29 14:42:00,
2013-04-29 10:57:00,65.7,65.0,30.05,North,353,0.0,3.0,97,0.00,,,1.41,weatherlink.com 1.10,2013-04-29 14:57:00,
2013-04-29 11:12:00,66.0,65.0,30.05,ESE,117,3.0,3.0,97,0.00,,,1.41,weatherlink.com 1.10,2013-04-29 15:12:00,
2013-04-29 11:27:00,66.6,65.0,30.05,ESE,114,0.0,3.0,95,0.00,,,1.41,weatherlink.com 1.10,2013-04-29 15:27:00,
2013-04-29 11:42:00,67.0,66.0,30.05,ESE,120,0.0,1.0,95,0.00,,,1.41,weatherlink.com 1.10,2013-04-29 15:42:00,
2013-04-29 11:57:00,67.4,66.0,30.04,South,170,0.0,4.0,94,0.00,,,1.41,weatherlink.com 1.10,2013-04-29 15:57:00,
2013-04-29 12:12:00,67.9,66.0,30.04,ESE,120,0.0,3.0,94,0.00,,,1.41,weatherlink.com 1.10,2013-04-29 16:12:00,
2013-04-29 12:27:00,69.7,67.0,30.04,SSW,198,0.0,2.0,91,0.00,,,1.41,weatherlink.com 1.10,2013-04-29 16:27:00,
2013-04-29 12:42:00,69.9,67.0,30.04,East,96,0.0,6.0,91,0.00,,,1.41,weatherlink.com 1.10,2013-04-29 16:42:00,
2013-04-29 12:57:00,70.8,68.0,30.04,South,180,1.0,6.0,89,0.00,,,1.41,weatherlink.com 1.10,2013-04-29 16:57:00,
2013-04-29 13:12:00,71.6,67.0,30.03,ESE,123,2.0,7.0,86,0.00,,,1.41,weatherlink.com 1.10,2013-04-29 17:12:00,
2013-04-29 13:27:00,71.0,67.0,30.02,East,97,4.0,9.0,88,0.00,,,1.41,weatherlink.com 1.10,2013-04-29 17:27:00,
2013-04-29 13:42:00,70.5,67.0,30.02,SE,129,4.0,7.0,87,0.00,,,1.41,weatherlink.com 1.10,2013-04-29 17:42:00,
2013-04-29 13:57:00,68.6,65.0,30.02,WNW,284,0.0,8.0,88,0.02,,,1.43,weatherlink.com 1.10,2013-04-29 17:57:00,
2013-04-29 14:13:00,67.5,65.0,30.01,South,173,4.0,8.0,90,0.03,,,1.44,weatherlink.com 1.10,2013-04-29 18:13:00,
2013-04-29 14:27:00,67.7,64.0,30.01,SSE,165,3.0,6.0,88,0.03,,,1.44,weatherlink.com 1.10,2013-04-29 18:27:00,
2013-04-29 14:42:00,66.7,64.0,30.01,ESE,123,3.0,5.0,90,0.05,,,1.46,weatherlink.com 1.10,2013-04-29 18:42:00,
2013-04-29 14:57:00,65.7,63.0,30.00,ESE,120,2.0,6.0,92,0.05,,,1.48,weatherlink.com 1.10,2013-04-29 18:57:00,
2013-04-29 15:12:00,65.2,64.0,30.00,SSE,168,0.0,3.0,94,0.05,,,1.49,weatherlink.com 1.10,2013-04-29 19:12:00,
2013-04-29 15:27:00,64.7,63.0,30.00,ENE,70,0.0,5.0,95,0.11,,,1.55,weatherlink.com 1.10,2013-04-29 19:27:00,
2013-04-29 15:42:00,64.3,63.0,30.00,East,99,0.0,2.0,95,0.13,,,1.59,weatherlink.com 1.10,2013-04-29 19:42:00,
2013-04-29 15:57:00,64.6,63.0,30.00,SSE,155,0.0,3.0,95,0.12,,,1.60,weatherlink.com 1.10,2013-04-29 19:57:00,
2013-04-29 16:12:00,64.8,64.0,29.99,East,101,0.0,3.0,96,0.12,,,1.61,weatherlink.com 1.10,2013-04-29 20:12:00,
2013-04-29 16:27:00,64.9,64.0,30.00,East,85,0.0,3.0,96,0.06,,,1.61,weatherlink.com 1.10,2013-04-29 20:27:00,
2013-04-29 16:42:00,65.1,64.0,30.00,SE,146,0.0,2.0,96,0.02,,,1.61,weatherlink.com 1.10,2013-04-29 20:42:00,
2013-04-29 16:57:00,65.0,64.0,30.00,SE,124,3.0,4.0,96,0.04,,,1.64,weatherlink.com 1.10,2013-04-29 20:57:00,
2013-04-29 17:12:00,65.1,64.0,30.01,SE,126,1.0,3.0,96,0.08,,,1.69,weatherlink.com 1.10,2013-04-29 21:12:00,
2013-04-29 17:27:00,65.2,64.0,30.01,NE,51,4.0,4.0,97,0.14,,,1.75,weatherlink.com 1.10,2013-04-29 21:27:00,
2013-04-29 17:42:00,64.4,63.0,30.01,ENE,62,2.0,4.0,96,0.21,,,1.82,weatherlink.com 1.10,2013-04-29 21:42:00,
2013-04-29 17:57:00,64.1,63.0,30.02,North,357,4.0,6.0,96,0.27,,,1.91,weatherlink.com 1.10,2013-04-29 21:57:00,
2013-04-29 18:12:00,64.3,63.0,30.01,ESE,104,1.0,2.0,96,0.26,,,1.96,weatherlink.com 1.10,2013-04-29 22:12:00,
2013-04-29 18:27:00,64.3,63.0,30.00,SE,139,1.0,1.0,96,0.24,,,2.00,weatherlink.com 1.10,2013-04-29 22:27:00,
2013-04-29 18:42:00,64.4,63.0,29.99,SE,146,1.0,2.0,96,0.19,,,2.01,weatherlink.com 1.10,2013-04-29 22:42:00,
2013-04-29 18:57:00,64.5,64.0,29.97,SSE,155,0.0,5.0,97,0.11,,,2.02,weatherlink.com 1.10,2013-04-29 22:57:00,
2013-04-29 19:12:00,64.6,64.0,29.97,ESE,104,0.0,5.0,97,0.06,,,2.02,weatherlink.com 1.10,2013-04-29 23:12:00,
2013-04-29 19:27:00,64.8,64.0,29.98,SSE,158,1.0,4.0,97,0.02,,,2.02,weatherlink.com 1.10,2013-04-29 23:27:00,
2013-04-29 19:42:00,64.8,64.0,29.98,SE,130,0.0,2.0,97,0.01,,,2.02,weatherlink.com 1.10,2013-04-29 23:42:00,
2013-04-29 19:57:00,64.9,64.0,29.98,SE,140,0.0,1.0,97,0.00,,,2.02,weatherlink.com 1.10,2013-04-29 23:57:00,
2013-04-29 20:12:00,65.0,65.0,29.99,ESE,113,0.0,2.0,98,0.00,,,2.02,weatherlink.com 1.10,2013-04-30 00:12:00,
2013-04-29 20:27:00,65.1,65.0,30.00,SW,229,1.0,3.0,98,0.00,,,2.02,weatherlink.com 1.10,2013-04-30 00:27:00,
2013-04-29 20:42:00,64.7,64.0,30.00,SW,222,0.0,2.0,97,0.00,,,2.02,weatherlink.com 1.10,2013-04-30 00:42:00,
2013-04-29 20:57:00,64.1,63.0,30.00,SW,225,0.0,2.0,97,0.00,,,2.02,weatherlink.com 1.10,2013-04-30 00:57:00,
2013-04-29 21:12:00,63.6,63.0,30.00,WSW,244,0.0,1.0,97,0.00,,,2.02,weatherlink.com 1.10,2013-04-30 01:12:00,
2013-04-29 21:27:00,63.4,63.0,30.01,ESE,116,0.0,1.0,97,0.00,,,2.02,weatherlink.com 1.10,2013-04-30 01:27:00,
2013-04-29 21:42:00,63.3,63.0,30.01,ESE,116,0.0,1.0,97,0.00,,,2.02,weatherlink.com 1.10,2013-04-30 01:42:00,
2013-04-29 21:57:00,63.1,63.0,30.02,SE,132,0.0,0.0,98,0.00,,,2.02,weatherlink.com 1.10,2013-04-30 01:57:00,
2013-04-29 22:12:00,63.0,63.0,30.01,SE,142,0.0,2.0,98,0.00,,,2.02,weatherlink.com 1.10,2013-04-30 02:12:00,
2013-04-29 22:27:00,63.0,63.0,30.01,South,172,0.0,2.0,98,0.00,,,2.02,weatherlink.com 1.10,2013-04-30 02:27:00,
2013-04-29 22:42:00,62.8,62.0,30.00,SSE,167,0.0,3.0,98,0.00,,,2.02,weatherlink.com 1.10,2013-04-30 02:42:00,
2013-04-29 22:57:00,62.7,62.0,30.00,SSE,160,0.0,1.0,98,0.00,,,2.02,weatherlink.com 1.10,2013-04-30 02:57:00,
2013-04-29 23:13:00,62.4,62.0,30.00,SSE,160,0.0,0.0,98,0.00,,,2.02,weatherlink.com 1.10,2013-04-30 03:13:00,
2013-04-29 23:28:00,62.2,62.0,29.99,SSE,160,0.0,1.0,98,0.00,,,2.02,weatherlink.com 1.10,2013-04-30 03:28:00,
2013-04-29 23:43:00,62.2,62.0,29.99,SSE,150,0.0,0.0,98,0.00,,,2.02,weatherlink.com 1.10,2013-04-30 03:43:00,
2013-04-29 23:58:00,62.2,62.0,29.99,SSE,150,0.0,1.0,98,0.00,,,2.02,weatherlink.com 1.10,2013-04-30 03:58:00,